Alsville, South Dakota
Current Conditions -  °F | °C
As of 7:53 PM on Friday 28 Nov 2014 (Local Time) from KATY Reporting Station
Haze Haze  
Wind Chill: -14°   Ceiling: 400
Heat Index: -8°   Visibility: 6mi
Dew Point: -9°   Wind: 7mph
Humidity: 92%   Direction: 120°ESE
Pressure: 29.63"   Gusts: NA
Location:  44.5892°N, 97.2322°W
Report Text: KATY 290153Z AUTO 12006KT 6SM BR OVC004 M08/M09 A2963 RMK AO2 SLP064 T10831094
Loading
Personal Weather Stations






























Interactive Weather Map New forecast layout! Learn more

10-Day Weather Forecast

Advertisements
Track Severe Weather on mobile